sensor_id;sensor_type;location;lat;lon;timestamp;P1;durP1;ratioP1;P2;durP2;ratioP2
44145;SDS011;29809;52.432;4.780;2023-03-11T00:00:25;0.90;;;0.53;;
44145;SDS011;29809;52.432;4.780;2023-03-11T00:02:51;1.40;;;0.30;;
44145;SDS011;29809;52.432;4.780;2023-03-11T00:05:21;0.88;;;0.57;;
44145;SDS011;29809;52.432;4.780;2023-03-11T00:07:46;0.95;;;0.50;;
44145;SDS011;29809;52.432;4.780;2023-03-11T00:10:15;0.70;;;0.50;;
44145;SDS011;29809;52.432;4.780;2023-03-11T00:12:41;1.75;;;0.68;;
44145;SDS011;29809;52.432;4.780;2023-03-11T00:15:07;0.65;;;0.50;;
44145;SDS011;29809;52.432;4.780;2023-03-11T00:17:32;0.98;;;0.60;;
44145;SDS011;29809;52.432;4.780;2023-03-11T00:19:57;3.00;;;0.57;;
44145;SDS011;29809;52.432;4.780;2023-03-11T00:22:23;2.03;;;1.00;;
44145;SDS011;29809;52.432;4.780;2023-03-11T00:24:48;1.25;;;0.80;;
44145;SDS011;29809;52.432;4.780;2023-03-11T00:27:13;0.63;;;0.50;;
44145;SDS011;29809;52.432;4.780;2023-03-11T00:29:38;0.83;;;0.60;;
44145;SDS011;29809;52.432;4.780;2023-03-11T00:32:03;0.98;;;0.60;;
44145;SDS011;29809;52.432;4.780;2023-03-11T00:34:29;1.27;;;0.63;;
44145;SDS011;29809;52.432;4.780;2023-03-11T00:36:54;1.20;;;0.70;;
44145;SDS011;29809;52.432;4.780;2023-03-11T00:39:19;1.13;;;0.67;;
44145;SDS011;29809;52.432;4.780;2023-03-11T00:41:45;1.25;;;0.65;;
44145;SDS011;29809;52.432;4.780;2023-03-11T00:44:10;1.57;;;0.87;;
44145;SDS011;29809;52.432;4.780;2023-03-11T00:46:36;0.87;;;0.80;;
44145;SDS011;29809;52.432;4.780;2023-03-11T00:49:02;1.27;;;0.87;;
44145;SDS011;29809;52.432;4.780;2023-03-11T00:51:27;2.50;;;1.10;;
44145;SDS011;29809;52.432;4.780;2023-03-11T00:53:53;0.70;;;0.60;;
44145;SDS011;29809;52.432;4.780;2023-03-11T00:56:18;2.10;;;0.87;;
44145;SDS011;29809;52.432;4.780;2023-03-11T00:58:43;1.43;;;0.93;;
44145;SDS011;29809;52.432;4.780;2023-03-11T01:01:10;1.00;;;0.90;;
44145;SDS011;29809;52.432;4.780;2023-03-11T01:03:37;1.00;;;0.87;;
44145;SDS011;29809;52.432;4.780;2023-03-11T01:06:02;2.40;;;1.40;;
44145;SDS011;29809;52.432;4.780;2023-03-11T01:08:27;1.50;;;0.97;;
44145;SDS011;29809;52.432;4.780;2023-03-11T01:10:54;1.63;;;1.40;;
44145;SDS011;29809;52.432;4.780;2023-03-11T01:13:20;3.20;;;1.50;;
44145;SDS011;29809;52.432;4.780;2023-03-11T01:15:46;1.93;;;1.27;;
44145;SDS011;29809;52.432;4.780;2023-03-11T01:18:11;2.73;;;1.63;;
44145;SDS011;29809;52.432;4.780;2023-03-11T01:20:36;1.77;;;1.17;;
44145;SDS011;29809;52.432;4.780;2023-03-11T01:23:02;3.10;;;1.37;;
44145;SDS011;29809;52.432;4.780;2023-03-11T01:25:27;2.47;;;1.50;;
44145;SDS011;29809;52.432;4.780;2023-03-11T01:27:53;1.83;;;1.53;;
44145;SDS011;29809;52.432;4.780;2023-03-11T01:30:19;1.97;;;1.40;;
44145;SDS011;29809;52.432;4.780;2023-03-11T01:32:45;2.20;;;1.60;;
44145;SDS011;29809;52.432;4.780;2023-03-11T01:35:11;2.57;;;1.67;;
44145;SDS011;29809;52.432;4.780;2023-03-11T01:37:37;2.47;;;1.67;;
44145;SDS011;29809;52.432;4.780;2023-03-11T01:40:02;2.73;;;1.77;;
44145;SDS011;29809;52.432;4.780;2023-03-11T01:42:27;2.73;;;1.70;;
44145;SDS011;29809;52.432;4.780;2023-03-11T01:44:53;3.17;;;1.93;;
44145;SDS011;29809;52.432;4.780;2023-03-11T01:47:31;2.50;;;1.70;;
44145;SDS011;29809;52.432;4.780;2023-03-11T01:49:56;2.63;;;1.67;;
44145;SDS011;29809;52.432;4.780;2023-03-11T01:52:21;2.30;;;1.60;;
44145;SDS011;29809;52.432;4.780;2023-03-11T01:54:47;2.67;;;1.60;;
44145;SDS011;29809;52.432;4.780;2023-03-11T01:57:12;2.97;;;1.70;;
44145;SDS011;29809;52.432;4.780;2023-03-11T01:59:40;2.37;;;1.83;;
44145;SDS011;29809;52.432;4.780;2023-03-11T02:02:24;2.60;;;1.77;;
44145;SDS011;29809;52.432;4.780;2023-03-11T02:04:50;2.40;;;1.67;;
44145;SDS011;29809;52.432;4.780;2023-03-11T02:07:16;2.10;;;1.57;;
44145;SDS011;29809;52.432;4.780;2023-03-11T02:09:41;3.37;;;2.10;;
44145;SDS011;29809;52.432;4.780;2023-03-11T02:12:07;5.70;;;2.40;;
44145;SDS011;29809;52.432;4.780;2023-03-11T02:14:33;3.03;;;1.60;;
44145;SDS011;29809;52.432;4.780;2023-03-11T02:16:59;3.57;;;2.13;;
44145;SDS011;29809;52.432;4.780;2023-03-11T02:22:08;2.60;;;1.83;;
44145;SDS011;29809;52.432;4.780;2023-03-11T02:24:35;2.30;;;2.03;;
44145;SDS011;29809;52.432;4.780;2023-03-11T02:27:07;3.33;;;2.20;;
44145;SDS011;29809;52.432;4.780;2023-03-11T02:29:33;2.80;;;1.93;;
44145;SDS011;29809;52.432;4.780;2023-03-11T02:31:58;3.40;;;1.90;;
44145;SDS011;29809;52.432;4.780;2023-03-11T02:34:29;2.30;;;1.80;;
44145;SDS011;29809;52.432;4.780;2023-03-11T02:36:54;3.47;;;1.90;;
44145;SDS011;29809;52.432;4.780;2023-03-11T02:39:30;3.97;;;1.80;;
44145;SDS011;29809;52.432;4.780;2023-03-11T02:41:55;2.90;;;1.60;;
44145;SDS011;29809;52.432;4.780;2023-03-11T02:44:22;2.37;;;1.80;;
44145;SDS011;29809;52.432;4.780;2023-03-11T02:46:47;3.60;;;1.83;;
44145;SDS011;29809;52.432;4.780;2023-03-11T02:49:13;3.40;;;2.10;;
44145;SDS011;29809;52.432;4.780;2023-03-11T02:51:38;3.57;;;2.00;;
44145;SDS011;29809;52.432;4.780;2023-03-11T02:54:04;5.80;;;2.33;;
44145;SDS011;29809;52.432;4.780;2023-03-11T02:56:30;3.60;;;2.20;;
44145;SDS011;29809;52.432;4.780;2023-03-11T02:58:55;2.40;;;1.90;;
44145;SDS011;29809;52.432;4.780;2023-03-11T03:01:20;3.70;;;2.27;;
44145;SDS011;29809;52.432;4.780;2023-03-11T03:03:46;2.50;;;1.80;;
44145;SDS011;29809;52.432;4.780;2023-03-11T03:06:11;2.73;;;1.90;;
44145;SDS011;29809;52.432;4.780;2023-03-11T03:08:36;2.73;;;1.87;;
44145;SDS011;29809;52.432;4.780;2023-03-11T03:11:02;2.63;;;1.87;;
44145;SDS011;29809;52.432;4.780;2023-03-11T03:13:27;1.93;;;1.70;;
44145;SDS011;29809;52.432;4.780;2023-03-11T03:15:53;2.83;;;2.00;;
44145;SDS011;29809;52.432;4.780;2023-03-11T03:18:18;2.30;;;1.70;;
44145;SDS011;29809;52.432;4.780;2023-03-11T03:20:44;2.40;;;1.73;;
44145;SDS011;29809;52.432;4.780;2023-03-11T03:26:12;2.50;;;1.70;;
44145;SDS011;29809;52.432;4.780;2023-03-11T03:28:38;2.90;;;1.63;;
44145;SDS011;29809;52.432;4.780;2023-03-11T03:31:04;2.17;;;1.73;;
44145;SDS011;29809;52.432;4.780;2023-03-11T03:33:30;2.17;;;1.63;;
44145;SDS011;29809;52.432;4.780;2023-03-11T03:35:55;2.30;;;1.50;;
44145;SDS011;29809;52.432;4.780;2023-03-11T03:38:21;2.33;;;1.53;;
44145;SDS011;29809;52.432;4.780;2023-03-11T03:40:46;2.53;;;1.10;;
44145;SDS011;29809;52.432;4.780;2023-03-11T03:43:11;2.63;;;1.67;;
44145;SDS011;29809;52.432;4.780;2023-03-11T03:45:37;1.73;;;1.60;;
44145;SDS011;29809;52.432;4.780;2023-03-11T03:48:02;2.30;;;1.40;;
44145;SDS011;29809;52.432;4.780;2023-03-11T03:50:27;1.60;;;1.20;;
44145;SDS011;29809;52.432;4.780;2023-03-11T03:52:53;1.93;;;1.40;;
44145;SDS011;29809;52.432;4.780;2023-03-11T03:55:18;1.93;;;1.40;;
44145;SDS011;29809;52.432;4.780;2023-03-11T03:57:43;1.23;;;1.00;;
44145;SDS011;29809;52.432;4.780;2023-03-11T04:00:08;1.40;;;1.00;;
44145;SDS011;29809;52.432;4.780;2023-03-11T04:02:34;1.20;;;1.10;;
44145;SDS011;29809;52.432;4.780;2023-03-11T04:04:59;3.27;;;1.40;;
44145;SDS011;29809;52.432;4.780;2023-03-11T04:07:24;2.80;;;0.90;;
44145;SDS011;29809;52.432;4.780;2023-03-11T04:09:50;1.50;;;1.20;;
44145;SDS011;29809;52.432;4.780;2023-03-11T04:12:15;2.80;;;1.10;;
44145;SDS011;29809;52.432;4.780;2023-03-11T04:14:44;1.60;;;1.00;;
44145;SDS011;29809;52.432;4.780;2023-03-11T04:17:12;1.30;;;1.10;;
44145;SDS011;29809;52.432;4.780;2023-03-11T04:19:38;1.40;;;0.97;;
44145;SDS011;29809;52.432;4.780;2023-03-11T04:22:03;1.07;;;0.93;;
44145;SDS011;29809;52.432;4.780;2023-03-11T04:24:28;1.53;;;1.07;;
44145;SDS011;29809;52.432;4.780;2023-03-11T04:26:54;2.40;;;1.10;;
44145;SDS011;29809;52.432;4.780;2023-03-11T04:29:19;1.83;;;1.10;;
44145;SDS011;29809;52.432;4.780;2023-03-11T04:31:44;1.10;;;1.00;;
44145;SDS011;29809;52.432;4.780;2023-03-11T04:34:09;1.60;;;0.80;;
44145;SDS011;29809;52.432;4.780;2023-03-11T04:36:35;1.00;;;0.80;;
44145;SDS011;29809;52.432;4.780;2023-03-11T04:39:00;2.37;;;0.77;;
44145;SDS011;29809;52.432;4.780;2023-03-11T04:41:25;0.80;;;0.80;;
44145;SDS011;29809;52.432;4.780;2023-03-11T04:43:51;2.10;;;0.80;;
44145;SDS011;29809;52.432;4.780;2023-03-11T04:46:16;1.00;;;0.93;;
44145;SDS011;29809;52.432;4.780;2023-03-11T04:48:41;1.13;;;0.70;;
44145;SDS011;29809;52.432;4.780;2023-03-11T04:51:06;1.00;;;0.87;;
44145;SDS011;29809;52.432;4.780;2023-03-11T04:53:32;1.07;;;0.77;;
44145;SDS011;29809;52.432;4.780;2023-03-11T04:55:57;0.70;;;0.70;;
44145;SDS011;29809;52.432;4.780;2023-03-11T04:58:22;0.80;;;0.67;;
44145;SDS011;29809;52.432;4.780;2023-03-11T05:00:48;2.83;;;1.13;;
44145;SDS011;29809;52.432;4.780;2023-03-11T05:03:13;3.27;;;0.80;;
44145;SDS011;29809;52.432;4.780;2023-03-11T05:05:38;1.73;;;0.67;;
44145;SDS011;29809;52.432;4.780;2023-03-11T05:08:04;1.00;;;0.83;;
44145;SDS011;29809;52.432;4.780;2023-03-11T05:10:29;0.90;;;0.80;;
44145;SDS011;29809;52.432;4.780;2023-03-11T05:12:54;0.73;;;0.73;;
44145;SDS011;29809;52.432;4.780;2023-03-11T05:15:19;1.00;;;0.70;;
44145;SDS011;29809;52.432;4.780;2023-03-11T05:17:45;0.77;;;0.60;;
44145;SDS011;29809;52.432;4.780;2023-03-11T05:20:10;1.47;;;0.70;;
44145;SDS011;29809;52.432;4.780;2023-03-11T05:22:36;0.97;;;0.60;;
44145;SDS011;29809;52.432;4.780;2023-03-11T05:25:01;0.87;;;0.70;;
44145;SDS011;29809;52.432;4.780;2023-03-11T05:27:27;0.50;;;0.33;;
44145;SDS011;29809;52.432;4.780;2023-03-11T05:29:52;0.90;;;0.80;;
44145;SDS011;29809;52.432;4.780;2023-03-11T05:32:17;0.87;;;0.60;;
44145;SDS011;29809;52.432;4.780;2023-03-11T05:34:43;1.17;;;0.80;;
44145;SDS011;29809;52.432;4.780;2023-03-11T05:37:08;1.53;;;0.70;;
44145;SDS011;29809;52.432;4.780;2023-03-11T05:39:34;0.73;;;0.60;;
44145;SDS011;29809;52.432;4.780;2023-03-11T05:41:59;0.80;;;0.50;;
44145;SDS011;29809;52.432;4.780;2023-03-11T05:44:24;0.40;;;0.30;;
44145;SDS011;29809;52.432;4.780;2023-03-11T05:46:50;0.83;;;0.43;;
44145;SDS011;29809;52.432;4.780;2023-03-11T05:49:15;0.60;;;0.50;;
44145;SDS011;29809;52.432;4.780;2023-03-11T05:51:40;7.10;;;0.80;;
44145;SDS011;29809;52.432;4.780;2023-03-11T05:54:05;0.97;;;0.53;;
44145;SDS011;29809;52.432;4.780;2023-03-11T05:56:38;0.50;;;0.50;;
44145;SDS011;29809;52.432;4.780;2023-03-11T05:59:04;0.50;;;0.40;;
44145;SDS011;29809;52.432;4.780;2023-03-11T06:01:29;1.33;;;0.53;;
44145;SDS011;29809;52.432;4.780;2023-03-11T06:03:54;1.10;;;0.57;;
44145;SDS011;29809;52.432;4.780;2023-03-11T06:06:20;1.53;;;0.50;;
44145;SDS011;29809;52.432;4.780;2023-03-11T06:08:45;0.80;;;0.63;;
44145;SDS011;29809;52.432;4.780;2023-03-11T06:11:13;1.03;;;0.47;;
44145;SDS011;29809;52.432;4.780;2023-03-11T06:13:39;0.90;;;0.27;;
44145;SDS011;29809;52.432;4.780;2023-03-11T06:16:04;0.70;;;0.40;;
44145;SDS011;29809;52.432;4.780;2023-03-11T06:18:30;0.50;;;0.50;;
44145;SDS011;29809;52.432;4.780;2023-03-11T06:20:58;0.83;;;0.50;;
44145;SDS011;29809;52.432;4.780;2023-03-11T06:23:24;1.13;;;0.80;;
44145;SDS011;29809;52.432;4.780;2023-03-11T06:25:56;0.50;;;0.50;;
44145;SDS011;29809;52.432;4.780;2023-03-11T06:28:21;1.27;;;0.40;;
44145;SDS011;29809;52.432;4.780;2023-03-11T06:30:47;1.20;;;0.70;;
44145;SDS011;29809;52.432;4.780;2023-03-11T06:33:12;0.93;;;0.60;;
44145;SDS011;29809;52.432;4.780;2023-03-11T06:35:39;5.07;;;0.70;;
44145;SDS011;29809;52.432;4.780;2023-03-11T06:38:04;4.30;;;0.60;;
44145;SDS011;29809;52.432;4.780;2023-03-11T06:40:29;1.30;;;0.73;;
44145;SDS011;29809;52.432;4.780;2023-03-11T06:42:54;2.70;;;0.70;;
44145;SDS011;29809;52.432;4.780;2023-03-11T06:45:20;2.83;;;0.90;;
44145;SDS011;29809;52.432;4.780;2023-03-11T06:47:45;1.43;;;1.00;;
44145;SDS011;29809;52.432;4.780;2023-03-11T06:50:10;1.63;;;1.00;;
44145;SDS011;29809;52.432;4.780;2023-03-11T06:52:35;2.47;;;1.07;;
44145;SDS011;29809;52.432;4.780;2023-03-11T06:55:01;4.07;;;0.70;;
44145;SDS011;29809;52.432;4.780;2023-03-11T06:57:27;5.00;;;1.23;;
44145;SDS011;29809;52.432;4.780;2023-03-11T06:59:54;0.80;;;0.80;;
44145;SDS011;29809;52.432;4.780;2023-03-11T07:02:20;2.50;;;0.80;;
44145;SDS011;29809;52.432;4.780;2023-03-11T07:04:47;47.63;;;13.10;;
44145;SDS011;29809;52.432;4.780;2023-03-11T07:07:12;71.70;;;19.47;;
44145;SDS011;29809;52.432;4.780;2023-03-11T07:09:37;71.23;;;19.40;;
44145;SDS011;29809;52.432;4.780;2023-03-11T07:12:03;51.43;;;15.93;;
44145;SDS011;29809;52.432;4.780;2023-03-11T07:14:28;43.73;;;14.63;;
44145;SDS011;29809;52.432;4.780;2023-03-11T07:16:54;38.37;;;12.57;;
44145;SDS011;29809;52.432;4.780;2023-03-11T07:19:19;42.50;;;12.90;;
44145;SDS011;29809;52.432;4.780;2023-03-11T07:21:44;41.33;;;12.43;;
44145;SDS011;29809;52.432;4.780;2023-03-11T07:24:10;29.83;;;10.97;;
44145;SDS011;29809;52.432;4.780;2023-03-11T07:26:36;25.00;;;10.27;;
44145;SDS011;29809;52.432;4.780;2023-03-11T07:29:02;30.97;;;10.00;;
44145;SDS011;29809;52.432;4.780;2023-03-11T07:31:32;27.07;;;9.10;;
44145;SDS011;29809;52.432;4.780;2023-03-11T07:33:58;26.67;;;8.37;;
44145;SDS011;29809;52.432;4.780;2023-03-11T07:36:24;18.73;;;8.67;;
44145;SDS011;29809;52.432;4.780;2023-03-11T07:38:56;19.47;;;7.97;;
44145;SDS011;29809;52.432;4.780;2023-03-11T07:41:27;18.00;;;7.17;;
44145;SDS011;29809;52.432;4.780;2023-03-11T07:43:53;16.27;;;7.23;;
44145;SDS011;29809;52.432;4.780;2023-03-11T07:46:19;13.20;;;6.37;;
44145;SDS011;29809;52.432;4.780;2023-03-11T07:48:46;11.30;;;5.40;;
44145;SDS011;29809;52.432;4.780;2023-03-11T07:51:13;12.97;;;5.23;;
44145;SDS011;29809;52.432;4.780;2023-03-11T07:53:39;9.47;;;5.20;;
44145;SDS011;29809;52.432;4.780;2023-03-11T07:56:05;15.60;;;4.50;;
44145;SDS011;29809;52.432;4.780;2023-03-11T07:58:30;10.67;;;4.90;;
44145;SDS011;29809;52.432;4.780;2023-03-11T08:00:56;9.43;;;5.00;;
44145;SDS011;29809;52.432;4.780;2023-03-11T08:03:22;13.23;;;4.13;;
44145;SDS011;29809;52.432;4.780;2023-03-11T08:05:47;12.97;;;5.03;;
44145;SDS011;29809;52.432;4.780;2023-03-11T08:08:13;13.67;;;3.93;;
44145;SDS011;29809;52.432;4.780;2023-03-11T08:10:38;10.40;;;3.87;;
44145;SDS011;29809;52.432;4.780;2023-03-11T08:13:03;12.30;;;3.77;;
44145;SDS011;29809;52.432;4.780;2023-03-11T08:15:29;11.57;;;3.75;;
44145;SDS011;29809;52.432;4.780;2023-03-11T08:17:54;7.53;;;3.30;;
44145;SDS011;29809;52.432;4.780;2023-03-11T08:20:19;8.33;;;3.77;;
44145;SDS011;29809;52.432;4.780;2023-03-11T08:22:45;8.23;;;3.50;;
44145;SDS011;29809;52.432;4.780;2023-03-11T08:25:10;8.23;;;3.67;;
44145;SDS011;29809;52.432;4.780;2023-03-11T08:27:44;4.93;;;2.90;;
44145;SDS011;29809;52.432;4.780;2023-03-11T08:30:10;8.23;;;3.00;;
44145;SDS011;29809;52.432;4.780;2023-03-11T08:32:36;6.63;;;3.47;;
44145;SDS011;29809;52.432;4.780;2023-03-11T08:35:01;6.23;;;2.80;;
44145;SDS011;29809;52.432;4.780;2023-03-11T08:37:26;7.60;;;3.53;;
44145;SDS011;29809;52.432;4.780;2023-03-11T08:39:51;7.20;;;2.97;;
44145;SDS011;29809;52.432;4.780;2023-03-11T08:42:17;8.27;;;3.10;;
44145;SDS011;29809;52.432;4.780;2023-03-11T08:44:42;4.73;;;2.27;;
44145;SDS011;29809;52.432;4.780;2023-03-11T08:47:08;3.30;;;2.30;;
44145;SDS011;29809;52.432;4.780;2023-03-11T08:49:33;5.80;;;2.53;;
44145;SDS011;29809;52.432;4.780;2023-03-11T08:52:00;4.80;;;2.53;;
44145;SDS011;29809;52.432;4.780;2023-03-11T08:54:25;6.63;;;1.97;;
44145;SDS011;29809;52.432;4.780;2023-03-11T08:56:51;3.00;;;1.93;;
44145;SDS011;29809;52.432;4.780;2023-03-11T08:59:16;3.28;;;1.90;;
44145;SDS011;29809;52.432;4.780;2023-03-11T09:01:41;4.00;;;1.98;;
44145;SDS011;29809;52.432;4.780;2023-03-11T09:04:06;4.47;;;2.20;;
44145;SDS011;29809;52.432;4.780;2023-03-11T09:06:32;4.40;;;2.40;;
44145;SDS011;29809;52.432;4.780;2023-03-11T09:08:57;4.53;;;2.40;;
44145;SDS011;29809;52.432;4.780;2023-03-11T09:11:22;2.73;;;1.90;;
44145;SDS011;29809;52.432;4.780;2023-03-11T09:13:48;4.03;;;2.07;;
44145;SDS011;29809;52.432;4.780;2023-03-11T09:16:14;1.90;;;1.47;;
44145;SDS011;29809;52.432;4.780;2023-03-11T09:18:40;3.17;;;1.83;;
44145;SDS011;29809;52.432;4.780;2023-03-11T09:21:05;3.30;;;1.43;;
44145;SDS011;29809;52.432;4.780;2023-03-11T09:23:30;3.17;;;1.80;;
44145;SDS011;29809;52.432;4.780;2023-03-11T09:25:58;3.33;;;1.55;;
44145;SDS011;29809;52.432;4.780;2023-03-11T09:28:24;2.80;;;1.50;;
44145;SDS011;29809;52.432;4.780;2023-03-11T09:30:49;3.27;;;1.90;;
44145;SDS011;29809;52.432;4.780;2023-03-11T09:33:14;3.03;;;1.50;;
44145;SDS011;29809;52.432;4.780;2023-03-11T09:35:40;3.60;;;1.23;;
44145;SDS011;29809;52.432;4.780;2023-03-11T09:38:05;3.97;;;1.57;;
44145;SDS011;29809;52.432;4.780;2023-03-11T09:40:44;1.40;;;1.03;;
44145;SDS011;29809;52.432;4.780;2023-03-11T09:43:27;2.30;;;1.40;;
44145;SDS011;29809;52.432;4.780;2023-03-11T09:46:11;2.93;;;1.20;;
44145;SDS011;29809;52.432;4.780;2023-03-11T09:48:46;3.27;;;1.50;;
44145;SDS011;29809;52.432;4.780;2023-03-11T09:51:17;2.08;;;1.10;;
44145;SDS011;29809;52.432;4.780;2023-03-11T09:53:44;2.25;;;1.30;;
44145;SDS011;29809;52.432;4.780;2023-03-11T09:56:11;3.25;;;1.33;;
44145;SDS011;29809;52.432;4.780;2023-03-11T09:58:45;1.30;;;1.13;;
44145;SDS011;29809;52.432;4.780;2023-03-11T10:01:30;1.30;;;1.05;;
44145;SDS011;29809;52.432;4.780;2023-03-11T10:04:19;1.83;;;1.03;;
44145;SDS011;29809;52.432;4.780;2023-03-11T10:06:43;2.23;;;1.77;;
44145;SDS011;29809;52.432;4.780;2023-03-11T10:17:25;2.97;;;1.77;;
44145;SDS011;29809;52.432;4.780;2023-03-11T10:19:54;2.83;;;1.43;;
44145;SDS011;29809;52.432;4.780;2023-03-11T10:22:26;2.20;;;1.37;;
44145;SDS011;29809;52.432;4.780;2023-03-11T10:27:21;2.23;;;1.30;;
44145;SDS011;29809;52.432;4.780;2023-03-11T10:32:34;2.30;;;1.30;;
44145;SDS011;29809;52.432;4.780;2023-03-11T10:35:04;1.67;;;1.20;;
44145;SDS011;29809;52.432;4.780;2023-03-11T10:37:34;2.30;;;1.37;;
44145;SDS011;29809;52.432;4.780;2023-03-11T10:42:46;2.63;;;0.98;;
44145;SDS011;29809;52.432;4.780;2023-03-11T10:45:12;3.45;;;1.23;;
44145;SDS011;29809;52.432;4.780;2023-03-11T10:47:38;1.67;;;0.85;;
44145;SDS011;29809;52.432;4.780;2023-03-11T10:50:03;2.15;;;1.00;;
44145;SDS011;29809;52.432;4.780;2023-03-11T10:52:28;2.28;;;0.85;;
44145;SDS011;29809;52.432;4.780;2023-03-11T10:55:00;2.65;;;0.98;;
44145;SDS011;29809;52.432;4.780;2023-03-11T10:57:28;1.70;;;1.00;;
44145;SDS011;29809;52.432;4.780;2023-03-11T10:59:57;1.42;;;0.90;;
44145;SDS011;29809;52.432;4.780;2023-03-11T11:02:27;2.05;;;1.02;;
44145;SDS011;29809;52.432;4.780;2023-03-11T11:12:36;2.17;;;0.95;;
44145;SDS011;29809;52.432;4.780;2023-03-11T11:15:02;0.82;;;0.70;;
44145;SDS011;29809;52.432;4.780;2023-03-11T11:17:31;0.90;;;0.70;;
44145;SDS011;29809;52.432;4.780;2023-03-11T11:19:58;2.80;;;1.10;;
44145;SDS011;29809;52.432;4.780;2023-03-11T11:22:23;1.63;;;0.90;;
44145;SDS011;29809;52.432;4.780;2023-03-11T11:24:50;2.72;;;0.80;;
44145;SDS011;29809;52.432;4.780;2023-03-11T11:29:43;1.05;;;0.80;;
44145;SDS011;29809;52.432;4.780;2023-03-11T11:35:04;1.33;;;0.70;;
44145;SDS011;29809;52.432;4.780;2023-03-11T11:37:30;0.80;;;0.57;;
44145;SDS011;29809;52.432;4.780;2023-03-11T11:40:04;2.15;;;0.60;;
44145;SDS011;29809;52.432;4.780;2023-03-11T11:42:35;0.82;;;0.45;;
44145;SDS011;29809;52.432;4.780;2023-03-11T11:45:03;2.00;;;0.70;;
44145;SDS011;29809;52.432;4.780;2023-03-11T11:47:32;1.15;;;0.60;;
44145;SDS011;29809;52.432;4.780;2023-03-11T11:49:59;1.98;;;0.80;;
44145;SDS011;29809;52.432;4.780;2023-03-11T11:52:34;1.10;;;0.47;;
44145;SDS011;29809;52.432;4.780;2023-03-11T11:55:04;2.63;;;0.60;;
44145;SDS011;29809;52.432;4.780;2023-03-11T11:57:30;1.08;;;0.75;;
44145;SDS011;29809;52.432;4.780;2023-03-11T11:59:56;1.17;;;0.70;;
44145;SDS011;29809;52.432;4.780;2023-03-11T12:05:06;0.65;;;0.40;;
44145;SDS011;29809;52.432;4.780;2023-03-11T12:08:16;2.25;;;0.80;;
44145;SDS011;29809;52.432;4.780;2023-03-11T12:10:27;1.77;;;0.65;;
44145;SDS011;29809;52.432;4.780;2023-03-11T12:15:50;1.75;;;0.80;;
44145;SDS011;29809;52.432;4.780;2023-03-11T12:18:27;1.60;;;0.82;;
44145;SDS011;29809;52.432;4.780;2023-03-11T12:20:54;1.48;;;0.60;;
44145;SDS011;29809;52.432;4.780;2023-03-11T12:30:56;0.43;;;0.35;;
44145;SDS011;29809;52.432;4.780;2023-03-11T12:35:55;0.95;;;0.45;;
44145;SDS011;29809;52.432;4.780;2023-03-11T12:40:55;0.60;;;0.55;;
44145;SDS011;29809;52.432;4.780;2023-03-11T12:46:18;0.25;;;0.20;;
44145;SDS011;29809;52.432;4.780;2023-03-11T12:53:49;0.63;;;0.50;;
44145;SDS011;29809;52.432;4.780;2023-03-11T13:06:46;0.63;;;0.47;;
44145;SDS011;29809;52.432;4.780;2023-03-11T13:09:15;1.98;;;0.55;;
44145;SDS011;29809;52.432;4.780;2023-03-11T13:11:42;3.35;;;0.90;;
44145;SDS011;29809;52.432;4.780;2023-03-11T13:16:42;5.32;;;1.23;;
44145;SDS011;29809;52.432;4.780;2023-03-11T13:19:32;3.63;;;1.40;;
44145;SDS011;29809;52.432;4.780;2023-03-11T13:21:58;6.20;;;0.98;;
44145;SDS011;29809;52.432;4.780;2023-03-11T13:26:55;3.90;;;0.82;;
44145;SDS011;29809;52.432;4.780;2023-03-11T13:32:27;1.75;;;1.00;;
44145;SDS011;29809;52.432;4.780;2023-03-11T13:40:12;4.00;;;0.85;;
44145;SDS011;29809;52.432;4.780;2023-03-11T13:45:44;2.30;;;0.77;;
44145;SDS011;29809;52.432;4.780;2023-03-11T13:48:15;2.95;;;0.60;;
44145;SDS011;29809;52.432;4.780;2023-03-11T13:50:44;8.32;;;1.02;;
44145;SDS011;29809;52.432;4.780;2023-03-11T13:53:22;5.57;;;0.95;;
44145;SDS011;29809;52.432;4.780;2023-03-11T13:55:50;3.38;;;0.98;;
44145;SDS011;29809;52.432;4.780;2023-03-11T13:58:17;4.95;;;1.00;;
44145;SDS011;29809;52.432;4.780;2023-03-11T14:00:56;2.67;;;0.70;;
44145;SDS011;29809;52.432;4.780;2023-03-11T14:03:22;2.80;;;0.63;;
44145;SDS011;29809;52.432;4.780;2023-03-11T14:05:54;1.52;;;0.60;;
44145;SDS011;29809;52.432;4.780;2023-03-11T14:08:22;1.55;;;0.60;;
44145;SDS011;29809;52.432;4.780;2023-03-11T14:11:31;2.10;;;0.50;;
44145;SDS011;29809;52.432;4.780;2023-03-11T14:13:44;3.30;;;0.63;;
44145;SDS011;29809;52.432;4.780;2023-03-11T14:16:16;2.08;;;0.50;;
44145;SDS011;29809;52.432;4.780;2023-03-11T14:18:43;1.80;;;0.70;;
44145;SDS011;29809;52.432;4.780;2023-03-11T14:21:14;3.20;;;0.63;;
44145;SDS011;29809;52.432;4.780;2023-03-11T14:23:49;2.72;;;0.68;;
44145;SDS011;29809;52.432;4.780;2023-03-11T14:28:44;3.08;;;0.40;;
44145;SDS011;29809;52.432;4.780;2023-03-11T14:31:21;3.45;;;0.63;;
44145;SDS011;29809;52.432;4.780;2023-03-11T14:33:54;0.90;;;0.30;;
44145;SDS011;29809;52.432;4.780;2023-03-11T14:36:20;1.90;;;0.63;;
44145;SDS011;29809;52.432;4.780;2023-03-11T14:38:45;2.22;;;0.52;;
44145;SDS011;29809;52.432;4.780;2023-03-11T14:41:10;1.77;;;0.70;;
44145;SDS011;29809;52.432;4.780;2023-03-11T14:43:38;3.05;;;0.88;;
44145;SDS011;29809;52.432;4.780;2023-03-11T14:46:05;1.35;;;0.60;;
44145;SDS011;29809;52.432;4.780;2023-03-11T14:48:35;1.98;;;0.47;;
44145;SDS011;29809;52.432;4.780;2023-03-11T14:51:01;1.00;;;0.50;;
44145;SDS011;29809;52.432;4.780;2023-03-11T14:53:29;0.77;;;0.50;;
44145;SDS011;29809;52.432;4.780;2023-03-11T14:55:58;2.17;;;0.50;;
44145;SDS011;29809;52.432;4.780;2023-03-11T15:03:31;1.38;;;0.60;;
44145;SDS011;29809;52.432;4.780;2023-03-11T15:06:02;1.00;;;0.40;;
44145;SDS011;29809;52.432;4.780;2023-03-11T15:08:30;1.25;;;0.80;;
44145;SDS011;29809;52.432;4.780;2023-03-11T15:11:04;3.72;;;0.57;;
44145;SDS011;29809;52.432;4.780;2023-03-11T15:13:30;0.77;;;0.57;;
44145;SDS011;29809;52.432;4.780;2023-03-11T15:16:03;1.50;;;0.50;;
44145;SDS011;29809;52.432;4.780;2023-03-11T15:18:38;2.53;;;0.50;;
44145;SDS011;29809;52.432;4.780;2023-03-11T15:23:31;1.27;;;0.60;;
44145;SDS011;29809;52.432;4.780;2023-03-11T15:25:58;1.45;;;0.50;;
44145;SDS011;29809;52.432;4.780;2023-03-11T15:28:23;1.23;;;0.50;;
44145;SDS011;29809;52.432;4.780;2023-03-11T15:31:12;1.92;;;0.40;;
44145;SDS011;29809;52.432;4.780;2023-03-11T15:33:36;1.17;;;0.52;;
44145;SDS011;29809;52.432;4.780;2023-03-11T15:36:02;0.60;;;0.52;;
44145;SDS011;29809;52.432;4.780;2023-03-11T15:38:28;1.95;;;0.50;;
44145;SDS011;29809;52.432;4.780;2023-03-11T15:40:54;0.45;;;0.40;;
44145;SDS011;29809;52.432;4.780;2023-03-11T15:43:21;0.52;;;0.32;;
44145;SDS011;29809;52.432;4.780;2023-03-11T15:45:48;1.15;;;0.52;;
44145;SDS011;29809;52.432;4.780;2023-03-11T15:48:13;2.47;;;0.65;;
44145;SDS011;29809;52.432;4.780;2023-03-11T15:50:45;2.42;;;0.80;;
44145;SDS011;29809;52.432;4.780;2023-03-11T15:53:11;1.30;;;0.50;;
44145;SDS011;29809;52.432;4.780;2023-03-11T15:55:36;1.80;;;0.70;;
44145;SDS011;29809;52.432;4.780;2023-03-11T15:58:02;1.67;;;0.60;;
44145;SDS011;29809;52.432;4.780;2023-03-11T16:00:29;0.95;;;0.60;;
44145;SDS011;29809;52.432;4.780;2023-03-11T16:02:54;2.05;;;0.70;;
44145;SDS011;29809;52.432;4.780;2023-03-11T16:05:21;0.68;;;0.40;;
44145;SDS011;29809;52.432;4.780;2023-03-11T16:07:46;0.75;;;0.40;;
44145;SDS011;29809;52.432;4.780;2023-03-11T16:10:12;1.33;;;0.50;;
44145;SDS011;29809;52.432;4.780;2023-03-11T16:12:38;1.00;;;0.50;;
44145;SDS011;29809;52.432;4.780;2023-03-11T16:15:04;0.95;;;0.32;;
44145;SDS011;29809;52.432;4.780;2023-03-11T16:17:29;2.03;;;0.50;;
44145;SDS011;29809;52.432;4.780;2023-03-11T16:19:55;0.60;;;0.60;;
44145;SDS011;29809;52.432;4.780;2023-03-11T16:22:21;1.13;;;0.55;;